createdAt,value
2023-03-28T00:02:06.546Z,11.35
2023-03-28T00:04:37.374Z,11.20
2023-03-28T00:07:05.710Z,13.50
2023-03-28T00:09:34.156Z,15.63
2023-03-28T00:12:02.480Z,13.40
2023-03-28T00:14:30.970Z,13.77
2023-03-28T00:17:01.942Z,8.13
2023-03-28T00:19:33.131Z,16.73
2023-03-28T00:22:02.588Z,9.55
2023-03-28T00:24:30.633Z,12.80
2023-03-28T00:27:00.705Z,9.90
2023-03-28T00:29:30.018Z,11.13
2023-03-28T00:31:58.432Z,12.18
2023-03-28T00:34:27.038Z,16.95
2023-03-28T00:36:55.174Z,16.80
2023-03-28T00:39:26.476Z,14.85
2023-03-28T00:41:55.674Z,13.88
2023-03-28T00:44:45.045Z,24.60
2023-03-28T00:47:20.769Z,18.50
2023-03-28T00:49:52.957Z,16.40
2023-03-28T00:52:24.313Z,12.85
2023-03-28T00:54:57.434Z,15.85
2023-03-28T00:57:27.241Z,12.60
2023-03-28T00:59:55.458Z,12.27
2023-03-28T01:02:24.337Z,20.25
2023-03-28T01:04:59.408Z,17.45
2023-03-28T01:07:35.147Z,18.25
2023-03-28T01:10:05.888Z,10.85
2023-03-28T01:12:34.996Z,14.15
2023-03-28T01:15:04.893Z,12.85
2023-03-28T01:17:48.177Z,16.45
2023-03-28T01:20:37.339Z,13.75
2023-03-28T01:23:47.617Z,13.27
2023-03-28T01:26:37.384Z,11.35
2023-03-28T01:29:48.981Z,16.52
2023-03-28T01:32:55.938Z,13.95
2023-03-28T01:35:59.132Z,13.68
2023-03-28T01:38:38.316Z,14.63
2023-03-28T01:41:13.782Z,12.05
2023-03-28T01:43:52.260Z,15.68
2023-03-28T01:46:24.796Z,12.05
2023-03-28T01:49:00.998Z,15.65
2023-03-28T01:51:37.922Z,15.07
2023-03-28T01:54:16.228Z,16.77
2023-03-28T01:56:51.390Z,16.30
2023-03-28T01:59:37.258Z,13.48
2023-03-28T02:02:44.904Z,14.27
2023-03-28T02:05:30.699Z,11.27
2023-03-28T02:08:01.259Z,12.45
2023-03-28T02:10:44.570Z,20.75
2023-03-28T02:13:37.622Z,9.73
2023-03-28T02:16:26.869Z,15.55
2023-03-28T02:19:02.279Z,23.85
2023-03-28T02:22:04.186Z,17.48
2023-03-28T02:24:52.040Z,9.98
2023-03-28T02:27:39.617Z,18.05
2023-03-28T02:30:34.510Z,15.23
2023-03-28T02:33:05.197Z,16.30
2023-03-28T02:35:53.073Z,15.07
2023-03-28T02:38:31.809Z,9.93
2023-03-28T02:41:08.523Z,10.70
2023-03-28T02:44:05.301Z,10.00
2023-03-28T02:46:39.929Z,11.82
2023-03-28T02:49:29.929Z,13.85
2023-03-28T02:52:11.711Z,14.85
2023-03-28T02:54:50.815Z,14.38
2023-03-28T02:57:43.871Z,11.95
2023-03-28T03:00:18.772Z,18.77
2023-03-28T03:02:50.528Z,9.90
2023-03-28T03:05:20.753Z,12.68
2023-03-28T03:07:49.713Z,11.52
2023-03-28T03:10:18.894Z,14.27
2023-03-28T03:12:48.956Z,13.52
2023-03-28T03:15:18.942Z,19.48
2023-03-28T03:17:53.712Z,15.82
2023-03-28T03:20:27.224Z,11.23
2023-03-28T03:22:56.837Z,17.80
2023-03-28T03:25:25.009Z,15.70
2023-03-28T03:27:58.487Z,15.35
2023-03-28T03:30:30.155Z,13.10
2023-03-28T03:33:18.545Z,18.52
2023-03-28T03:35:49.995Z,14.20
2023-03-28T03:38:20.825Z,15.52
2023-03-28T03:40:49.099Z,15.25
2023-03-28T03:43:17.662Z,19.33
2023-03-28T03:45:47.920Z,13.45
2023-03-28T03:48:16.084Z,16.58
2023-03-28T03:50:44.262Z,16.10
2023-03-28T03:53:16.717Z,9.07
2023-03-28T03:55:51.254Z,12.40
2023-03-28T03:58:20.617Z,14.05
2023-03-28T04:00:52.094Z,14.57
2023-03-28T04:03:48.262Z,13.55
2023-03-28T04:06:24.289Z,17.23
2023-03-28T04:08:52.711Z,15.07
2023-03-28T04:11:36.120Z,8.60
2023-03-28T04:14:04.493Z,14.38
2023-03-28T04:16:40.912Z,17.40
2023-03-28T04:19:13.792Z,13.00
2023-03-28T04:21:44.059Z,14.57
2023-03-28T04:24:15.659Z,8.65
2023-03-28T04:26:50.191Z,15.45
2023-03-28T04:29:25.032Z,11.05
2023-03-28T04:32:15.425Z,13.15
2023-03-28T04:35:03.390Z,10.27
2023-03-28T04:37:31.803Z,16.50
2023-03-28T04:40:10.312Z,15.52
2023-03-28T04:42:47.073Z,12.20
2023-03-28T04:45:26.381Z,16.73
2023-03-28T04:47:57.676Z,11.57
2023-03-28T04:50:26.614Z,17.02
2023-03-28T04:52:54.937Z,17.48
2023-03-28T04:55:24.128Z,14.25
2023-03-28T04:57:52.396Z,17.50
2023-03-28T05:00:23.547Z,16.95
2023-03-28T05:03:14.905Z,15.45
2023-03-28T05:05:53.991Z,17.40
2023-03-28T05:08:24.236Z,16.70
2023-03-28T05:10:52.858Z,17.52
2023-03-28T05:13:23.647Z,17.42
2023-03-28T05:16:03.259Z,16.75
2023-03-28T05:18:48.672Z,12.02
2023-03-28T05:21:20.919Z,17.40
2023-03-28T05:23:53.288Z,15.80
2023-03-28T05:26:24.061Z,11.68
2023-03-28T05:28:53.509Z,15.77
2023-03-28T05:31:21.851Z,16.40
2023-03-28T05:34:04.332Z,14.45
2023-03-28T05:36:40.077Z,12.55
2023-03-28T05:39:20.556Z,12.88
2023-03-28T05:41:48.863Z,17.52
2023-03-28T05:44:18.688Z,12.35
2023-03-28T05:47:07.405Z,19.10
2023-03-28T05:49:36.863Z,17.25
2023-03-28T05:52:05.210Z,11.50
2023-03-28T05:54:33.839Z,12.25
2023-03-28T05:57:01.926Z,8.32
2023-03-28T05:59:30.228Z,10.68
2023-03-28T06:01:58.467Z,11.25
2023-03-28T06:04:28.118Z,13.10
2023-03-28T06:06:58.346Z,10.18
2023-03-28T06:09:31.676Z,10.65
2023-03-28T06:12:01.624Z,17.60
2023-03-28T06:14:31.817Z,22.63
2023-03-28T06:17:03.358Z,14.20
2023-03-28T06:19:38.569Z,16.55
2023-03-28T06:22:08.722Z,14.43
2023-03-28T06:24:37.226Z,16.33
2023-03-28T06:27:05.782Z,16.75
2023-03-28T06:29:38.288Z,6.90
2023-03-28T06:32:06.948Z,10.50
2023-03-28T06:34:35.693Z,16.90
2023-03-28T06:37:03.940Z,9.98
2023-03-28T06:39:50.687Z,13.32
2023-03-28T06:42:19.072Z,10.90
2023-03-28T06:44:56.484Z,13.85
2023-03-28T06:47:31.449Z,10.48
2023-03-28T06:49:59.553Z,12.90
2023-03-28T06:52:35.068Z,12.93
2023-03-28T06:55:08.264Z,10.35
2023-03-28T06:57:36.688Z,12.63
2023-03-28T07:00:16.598Z,17.02
2023-03-28T07:03:05.566Z,18.83
2023-03-28T07:05:38.512Z,10.93
2023-03-28T07:08:07.565Z,10.75
2023-03-28T07:10:37.583Z,11.13
2023-03-28T07:13:06.247Z,14.98
2023-03-28T07:15:35.478Z,14.20
2023-03-28T07:18:07.063Z,12.32
2023-03-28T07:20:35.484Z,16.13
2023-03-28T07:23:03.537Z,10.85
2023-03-28T07:25:34.275Z,17.50
2023-03-28T07:28:03.977Z,13.25
2023-03-28T07:30:32.181Z,12.63
2023-03-28T07:33:14.106Z,13.07
2023-03-28T07:35:45.697Z,7.53
2023-03-28T07:38:15.456Z,10.43
2023-03-28T07:40:50.075Z,15.48
2023-03-28T07:43:19.724Z,12.27
2023-03-28T07:45:49.010Z,11.80
2023-03-28T07:48:17.309Z,9.52
2023-03-28T07:50:45.395Z,11.13
2023-03-28T07:53:16.448Z,10.13
2023-03-28T07:55:54.234Z,10.48
2023-03-28T07:58:31.260Z,9.82
2023-03-28T08:01:06.374Z,10.75
2023-03-28T08:03:47.245Z,10.52
2023-03-28T08:06:30.945Z,13.10
2023-03-28T08:09:02.102Z,11.20
2023-03-28T08:11:37.334Z,13.32
2023-03-28T08:14:09.227Z,7.72
2023-03-28T08:16:38.373Z,13.85
2023-03-28T08:19:11.243Z,9.13
2023-03-28T08:22:18.669Z,9.30
2023-03-28T08:25:15.876Z,8.80
2023-03-28T08:27:45.689Z,8.13
2023-03-28T08:30:15.622Z,8.30
2023-03-28T08:32:59.512Z,8.60
2023-03-28T08:35:27.646Z,10.88
2023-03-28T08:37:59.756Z,10.70
2023-03-28T08:40:30.277Z,7.28
2023-03-28T08:43:24.888Z,11.75
2023-03-28T08:45:56.465Z,12.77
2023-03-28T08:48:30.650Z,9.68
2023-03-28T08:51:02.691Z,8.60
2023-03-28T08:53:35.545Z,14.43
2023-03-28T08:56:07.642Z,7.78
2023-03-28T08:58:47.717Z,8.65
2023-03-28T09:01:20.936Z,7.20
2023-03-28T09:03:50.292Z,8.52
2023-03-28T09:06:30.786Z,10.63
2023-03-28T09:09:32.438Z,11.85
2023-03-28T09:12:37.159Z,7.85
2023-03-28T09:15:23.938Z,9.63
2023-03-28T09:18:06.576Z,10.02
2023-03-28T09:20:43.284Z,8.43
2023-03-28T09:23:59.021Z,8.55
2023-03-28T09:26:49.168Z,12.95
2023-03-28T09:29:25.911Z,12.35
2023-03-28T09:32:02.326Z,9.35
2023-03-28T09:34:40.690Z,10.48
2023-03-28T09:37:18.934Z,8.57
2023-03-28T09:39:52.248Z,8.57
2023-03-28T09:42:32.663Z,7.68
2023-03-28T09:45:40.513Z,7.00
2023-03-28T09:48:30.451Z,8.40
2023-03-28T09:51:04.096Z,8.43
2023-03-28T09:53:34.303Z,11.30
2023-03-28T09:56:05.852Z,7.57
2023-03-28T09:58:51.200Z,8.98
2023-03-28T10:01:36.893Z,9.32
2023-03-28T10:04:34.976Z,8.25
2023-03-28T10:07:34.843Z,11.35
2023-03-28T10:10:25.138Z,7.40
2023-03-28T10:13:02.867Z,6.88
2023-03-28T10:15:36.025Z,7.15
2023-03-28T10:18:27.094Z,6.70
2023-03-28T10:21:16.189Z,7.90
2023-03-28T10:26:26.091Z,4.93
2023-03-28T10:28:57.736Z,5.00
2023-03-28T10:31:30.624Z,5.78
2023-03-28T10:34:29.236Z,17.48
2023-03-28T10:37:27.277Z,7.20
2023-03-28T10:40:33.201Z,6.65
2023-03-28T10:43:15.245Z,4.78
2023-03-28T10:45:52.671Z,6.10
2023-03-28T10:48:31.262Z,8.90
2023-03-28T10:51:10.541Z,9.85
2023-03-28T10:53:53.977Z,4.55
2023-03-28T10:56:33.441Z,8.13
2023-03-28T10:59:31.514Z,7.03
2023-03-28T11:02:31.203Z,8.98
2023-03-28T11:05:03.722Z,5.75
2023-03-28T11:07:38.615Z,6.88
2023-03-28T11:10:44.521Z,11.93
2023-03-28T11:13:36.886Z,7.95
2023-03-28T11:16:11.606Z,5.03
2023-03-28T11:19:06.472Z,3.40
2023-03-28T11:21:49.536Z,6.60
2023-03-28T11:24:28.598Z,5.20
2023-03-28T11:27:20.504Z,5.68
2023-03-28T11:30:00.271Z,7.82
2023-03-28T11:32:41.842Z,8.10
2023-03-28T11:35:18.647Z,5.45
2023-03-28T11:37:59.708Z,8.98
2023-03-28T11:40:31.744Z,4.35
2023-03-28T11:43:08.068Z,5.00
2023-03-28T11:45:52.110Z,5.30
2023-03-28T11:48:28.104Z,4.22
2023-03-28T11:51:04.826Z,6.97
2023-03-28T11:54:03.811Z,4.50
2023-03-28T11:56:44.352Z,4.93
2023-03-28T11:59:22.969Z,4.68
2023-03-28T12:02:01.046Z,8.45
2023-03-28T12:04:32.870Z,4.75
2023-03-28T12:07:11.853Z,3.92
2023-03-28T12:09:58.942Z,4.85
2023-03-28T12:12:31.894Z,4.38
2023-03-28T12:15:06.256Z,11.43
2023-03-28T12:18:00.159Z,4.70
2023-03-28T12:20:33.198Z,7.97
2023-03-28T12:23:12.534Z,5.65
2023-03-28T12:26:07.837Z,8.02
2023-03-28T12:28:41.524Z,7.28
2023-03-28T12:31:16.526Z,6.15
2023-03-28T12:33:55.935Z,6.57
2023-03-28T12:36:53.433Z,7.63
2023-03-28T12:39:35.235Z,9.00
2023-03-28T12:42:13.114Z,6.88
2023-03-28T12:44:45.292Z,7.68
2023-03-28T12:47:18.112Z,4.35
2023-03-28T12:49:51.310Z,14.82
2023-03-28T12:52:24.560Z,7.22
2023-03-28T12:55:01.124Z,6.78
2023-03-28T12:57:48.556Z,4.65
2023-03-28T13:00:51.151Z,6.97
2023-03-28T13:06:25.363Z,6.75
2023-03-28T13:09:24.539Z,11.50
2023-03-28T13:11:59.010Z,15.38
2023-03-28T13:14:36.540Z,7.70
2023-03-28T13:17:19.474Z,6.35
2023-03-28T13:19:53.132Z,6.57
2023-03-28T13:22:34.385Z,6.63
2023-03-28T13:25:29.055Z,6.43
2023-03-28T13:28:00.434Z,6.13
2023-03-28T13:30:30.668Z,6.10
2023-03-28T13:33:02.065Z,6.45
2023-03-28T13:35:40.490Z,6.88
2023-03-28T13:38:23.848Z,6.95
2023-03-28T13:40:54.948Z,7.70
2023-03-28T13:43:27.875Z,9.82
2023-03-28T13:45:59.629Z,7.38
2023-03-28T13:48:34.351Z,6.03
2023-03-28T13:51:06.953Z,2.47
2023-03-28T13:53:46.994Z,5.90
2023-03-28T13:56:24.436Z,3.78
2023-03-28T13:58:55.320Z,6.20
2023-03-28T14:01:28.299Z,3.95
2023-03-28T14:03:56.830Z,6.68
2023-03-28T14:06:27.117Z,6.90
2023-03-28T14:09:02.465Z,7.18
2023-03-28T14:11:33.926Z,7.57
2023-03-28T14:14:08.123Z,5.30
2023-03-28T14:16:38.323Z,5.57
2023-03-28T14:19:07.729Z,5.57
2023-03-28T14:21:36.341Z,6.82
2023-03-28T14:24:08.970Z,5.53
2023-03-28T14:26:38.031Z,3.65
2023-03-28T14:29:08.711Z,3.17
2023-03-28T14:31:40.360Z,7.57
2023-03-28T14:34:24.192Z,3.95
2023-03-28T14:36:58.884Z,6.40
2023-03-28T14:39:30.034Z,5.93
2023-03-28T14:42:00.648Z,3.50
2023-03-28T14:44:31.498Z,6.18
2023-03-28T14:47:00.730Z,4.38
2023-03-28T14:49:29.545Z,5.88
2023-03-28T14:51:59.476Z,4.63
2023-03-28T14:54:34.620Z,2.95
2023-03-28T14:57:07.225Z,5.10
2023-03-28T14:59:40.889Z,6.03
2023-03-28T15:02:20.041Z,3.50
2023-03-28T15:04:49.107Z,5.07
2023-03-28T15:07:23.937Z,6.82
2023-03-28T15:10:11.999Z,7.20
2023-03-28T15:12:48.236Z,5.28
2023-03-28T15:15:22.433Z,4.50
2023-03-28T15:17:52.580Z,3.58
2023-03-28T15:20:25.024Z,7.65
2023-03-28T15:22:57.666Z,5.25
2023-03-28T15:25:27.988Z,4.05
2023-03-28T15:28:00.039Z,7.18
2023-03-28T15:30:30.012Z,5.32
2023-03-28T15:33:04.246Z,7.57
2023-03-28T15:35:38.225Z,5.28
2023-03-28T15:38:09.021Z,5.78
2023-03-28T15:40:43.393Z,6.18
2023-03-28T15:46:00.328Z,4.63
2023-03-28T15:48:29.811Z,5.65
2023-03-28T15:50:58.026Z,7.03
2023-03-28T15:53:29.846Z,5.70
2023-03-28T15:56:06.344Z,8.25
2023-03-28T15:58:36.096Z,10.00
2023-03-28T16:01:23.664Z,7.40
2023-03-28T16:03:53.327Z,19.50
2023-03-28T16:06:32.431Z,16.27
2023-03-28T16:09:16.415Z,4.75
2023-03-28T16:11:46.974Z,5.82
2023-03-28T16:14:38.941Z,5.95
2023-03-28T16:17:24.903Z,6.28
2023-03-28T16:20:04.091Z,6.40
2023-03-28T16:22:32.287Z,7.00
2023-03-28T16:25:00.330Z,7.30
2023-03-28T16:27:31.277Z,6.57
2023-03-28T16:29:59.478Z,5.05
2023-03-28T16:32:28.005Z,6.13
2023-03-28T16:34:56.089Z,7.10
2023-03-28T16:37:24.380Z,4.15
2023-03-28T16:39:52.656Z,5.72
2023-03-28T16:42:21.735Z,6.30
2023-03-28T16:44:51.318Z,8.45
2023-03-28T16:47:19.517Z,11.32
2023-03-28T16:49:47.688Z,9.82
2023-03-28T16:52:15.835Z,6.38
2023-03-28T16:54:44.389Z,7.32
2023-03-28T16:57:12.874Z,10.57
2023-03-28T16:59:42.138Z,8.80
2023-03-28T17:02:12.789Z,10.77
2023-03-28T17:04:40.877Z,5.75
2023-03-28T17:07:09.173Z,9.02
2023-03-28T17:09:37.553Z,4.30
2023-03-28T17:12:05.955Z,7.47
2023-03-28T17:14:34.313Z,11.98
2023-03-28T17:17:03.635Z,6.00
2023-03-28T17:19:34.708Z,7.82
2023-03-28T17:22:03.051Z,5.93
2023-03-28T17:24:31.422Z,8.85
2023-03-28T17:26:59.823Z,10.93
2023-03-28T17:29:28.480Z,4.85
2023-03-28T17:31:57.214Z,8.82
2023-03-28T17:34:25.474Z,6.55
2023-03-28T17:36:55.762Z,5.60
2023-03-28T17:39:24.235Z,7.20
2023-03-28T17:41:52.311Z,5.88
2023-03-28T17:44:20.493Z,6.78
2023-03-28T17:46:49.009Z,7.25
2023-03-28T17:49:18.487Z,7.93
2023-03-28T17:51:47.030Z,8.23
2023-03-28T17:54:22.272Z,4.43
2023-03-28T17:56:50.753Z,9.65
2023-03-28T17:59:19.016Z,6.55
2023-03-28T18:01:49.011Z,7.28
2023-03-28T18:04:17.582Z,4.55
2023-03-28T18:07:16.205Z,9.40
2023-03-28T18:09:47.215Z,9.75
2023-03-28T18:12:15.730Z,6.93
2023-03-28T18:14:44.736Z,8.18
2023-03-28T18:17:13.247Z,8.50
2023-03-28T18:19:41.654Z,8.23
2023-03-28T18:22:09.946Z,7.20
2023-03-28T18:24:38.455Z,7.50
2023-03-28T18:27:07.982Z,7.03
2023-03-28T18:29:37.913Z,8.93
2023-03-28T18:32:06.500Z,8.02
2023-03-28T18:34:34.691Z,6.47
2023-03-28T18:37:04.415Z,6.00
2023-03-28T18:39:32.484Z,6.45
2023-03-28T18:42:00.797Z,9.30
2023-03-28T18:44:30.293Z,9.77
2023-03-28T18:46:58.459Z,11.23
2023-03-28T18:49:28.480Z,8.35
2023-03-28T18:52:03.925Z,8.30
2023-03-28T18:54:33.009Z,10.50
2023-03-28T18:57:01.864Z,6.93
2023-03-28T18:59:32.383Z,7.60
2023-03-28T19:02:00.961Z,8.60
2023-03-28T19:04:29.418Z,13.18
2023-03-28T19:06:57.761Z,11.32
2023-03-28T19:09:26.331Z,10.13
2023-03-28T19:11:55.035Z,14.00
2023-03-28T19:14:23.260Z,9.63
2023-03-28T19:16:52.802Z,8.20
2023-03-28T19:19:21.113Z,9.57
2023-03-28T19:21:49.539Z,9.77
2023-03-28T19:24:20.118Z,10.13
2023-03-28T19:26:48.625Z,9.85
2023-03-28T19:29:17.034Z,12.25
2023-03-28T19:31:45.962Z,12.05
2023-03-28T19:34:17.824Z,9.10
2023-03-28T19:36:46.300Z,9.95
2023-03-28T19:39:14.818Z,9.20
2023-03-28T19:41:43.086Z,9.13
2023-03-28T19:44:11.239Z,7.70
2023-03-28T19:46:39.638Z,9.73
2023-03-28T19:49:07.991Z,12.60
2023-03-28T19:51:37.618Z,12.98
2023-03-28T19:54:05.902Z,10.45
2023-03-28T19:56:34.099Z,7.00
2023-03-28T19:59:02.511Z,7.72
2023-03-28T20:01:30.664Z,11.30
2023-03-28T20:03:59.053Z,9.85
2023-03-28T20:06:27.096Z,8.95
2023-03-28T20:08:57.109Z,8.50
2023-03-28T20:11:26.525Z,8.50
2023-03-28T20:13:54.661Z,8.60
2023-03-28T20:16:23.195Z,9.68
2023-03-28T20:18:51.380Z,7.22
2023-03-28T20:21:19.482Z,7.03
2023-03-28T20:23:47.778Z,12.43
2023-03-28T20:26:19.403Z,10.45
2023-03-28T20:28:50.098Z,10.40
2023-03-28T20:31:19.998Z,10.15
2023-03-28T20:33:48.182Z,8.38
2023-03-28T20:36:17.409Z,8.30
2023-03-28T20:38:45.764Z,10.52
2023-03-28T20:41:15.542Z,5.97
2023-03-28T20:43:47.744Z,7.45
2023-03-28T20:46:19.502Z,6.93
2023-03-28T20:48:53.133Z,5.57
2023-03-28T20:51:26.046Z,6.15
2023-03-28T20:53:57.200Z,7.43
2023-03-28T20:56:27.372Z,7.60
2023-03-28T20:58:59.448Z,8.73
2023-03-28T21:01:29.917Z,5.10
2023-03-28T21:04:01.741Z,10.23
2023-03-28T21:06:33.528Z,8.13
2023-03-28T21:09:04.735Z,7.15
2023-03-28T21:11:35.432Z,6.65
2023-03-28T21:14:06.503Z,7.85
2023-03-28T21:16:38.687Z,3.97
2023-03-28T21:19:07.848Z,9.65
2023-03-28T21:21:36.574Z,8.48
2023-03-28T21:24:07.140Z,4.55
2023-03-28T21:26:36.131Z,8.23
2023-03-28T21:29:05.744Z,11.30
2023-03-28T21:31:34.234Z,8.68
2023-03-28T21:34:07.398Z,12.65
2023-03-28T21:36:35.826Z,13.88
2023-03-28T21:39:04.411Z,9.32
2023-03-28T21:41:32.884Z,7.97
2023-03-28T21:44:01.195Z,11.68
2023-03-28T21:46:31.203Z,9.27
2023-03-28T21:48:59.794Z,10.82
2023-03-28T21:51:28.021Z,8.65
2023-03-28T21:53:56.804Z,8.13
2023-03-28T21:56:25.351Z,7.78
2023-03-28T21:58:53.493Z,12.68
2023-03-28T22:01:21.826Z,8.45
2023-03-28T22:03:52.106Z,9.27
2023-03-28T22:06:20.694Z,8.43
2023-03-28T22:08:52.772Z,10.00
2023-03-28T22:11:27.851Z,7.43
2023-03-28T22:14:02.600Z,6.78
2023-03-28T22:16:36.488Z,4.78
2023-03-28T22:19:06.725Z,7.00
2023-03-28T22:21:35.113Z,6.95
2023-03-28T22:24:06.345Z,6.45
2023-03-28T22:26:35.881Z,8.27
2023-03-28T22:29:05.087Z,7.55
2023-03-28T22:31:33.842Z,5.55
2023-03-28T22:34:02.185Z,7.75
2023-03-28T22:36:31.808Z,9.00
2023-03-28T22:39:00.013Z,8.63
2023-03-28T22:41:31.520Z,4.70
2023-03-28T22:44:00.224Z,7.18
2023-03-28T22:46:28.401Z,5.97
2023-03-28T22:48:58.259Z,6.35
2023-03-28T22:54:16.071Z,5.45
2023-03-28T22:56:45.990Z,3.33
2023-03-28T22:59:14.627Z,3.63
2023-03-28T23:01:45.673Z,4.70
2023-03-28T23:04:13.980Z,3.53
2023-03-28T23:06:43.220Z,4.47
2023-03-28T23:09:12.906Z,3.47
2023-03-28T23:11:42.732Z,3.67
2023-03-28T23:14:11.417Z,6.13
2023-03-28T23:16:39.997Z,5.30
2023-03-28T23:19:08.411Z,3.10
2023-03-28T23:21:37.130Z,9.50
2023-03-28T23:24:06.826Z,4.60
2023-03-28T23:26:35.083Z,5.60
2023-03-28T23:29:05.188Z,5.82
2023-03-28T23:31:33.386Z,6.13
2023-03-28T23:34:01.496Z,5.38
2023-03-28T23:36:30.268Z,6.25
2023-03-28T23:38:58.621Z,5.90
2023-03-28T23:41:26.678Z,8.60
2023-03-28T23:43:54.962Z,7.38
2023-03-28T23:46:25.093Z,5.18
2023-03-28T23:48:53.233Z,6.28
2023-03-28T23:51:21.508Z,6.30
2023-03-28T23:53:50.017Z,10.73
2023-03-28T23:56:18.546Z,7.28
2023-03-28T23:58:46.721Z,10.15
